sensor_id;sensor_type;location;lat;lon;timestamp;pressure;altitude;pressure_sealevel;temperature;humidity
56689;BME280;42565;53.342;-1.534;2024-03-08T00:00:22;99111.72;;;3.85;71.98
56689;BME280;42565;53.342;-1.534;2024-03-08T00:02:49;99106.89;;;4.19;71.56
56689;BME280;42565;53.342;-1.534;2024-03-08T00:05:16;99105.51;;;3.72;71.36
56689;BME280;42565;53.342;-1.534;2024-03-08T00:07:43;99101.19;;;4.77;70.44
56689;BME280;42565;53.342;-1.534;2024-03-08T00:10:11;99097.83;;;4.31;69.60
56689;BME280;42565;53.342;-1.534;2024-03-08T00:12:39;99096.69;;;4.65;69.47
56689;BME280;42565;53.342;-1.534;2024-03-08T00:15:06;99100.61;;;2.68;76.66
56689;BME280;42565;53.342;-1.534;2024-03-08T00:17:33;99093.45;;;4.19;72.38
56689;BME280;42565;53.342;-1.534;2024-03-08T00:20:01;99088.73;;;3.81;71.34
56689;BME280;42565;53.342;-1.534;2024-03-08T00:22:27;99084.86;;;4.05;73.03
56689;BME280;42565;53.342;-1.534;2024-03-08T00:24:55;99080.23;;;4.23;71.51
56689;BME280;42565;53.342;-1.534;2024-03-08T00:27:23;99078.04;;;4.27;71.83
56689;BME280;42565;53.342;-1.534;2024-03-08T00:29:50;99074.97;;;4.98;70.52
56689;BME280;42565;53.342;-1.534;2024-03-08T00:32:17;99075.44;;;4.41;70.45
56689;BME280;42565;53.342;-1.534;2024-03-08T00:34:44;99073.74;;;4.36;71.42
56689;BME280;42565;53.342;-1.534;2024-03-08T00:37:11;99065.99;;;4.45;70.76
56689;BME280;42565;53.342;-1.534;2024-03-08T00:39:38;99072.25;;;4.21;72.63
56689;BME280;42565;53.342;-1.534;2024-03-08T00:42:05;99070.78;;;3.90;73.89
56689;BME280;42565;53.342;-1.534;2024-03-08T00:44:32;99070.39;;;4.33;73.57
56689;BME280;42565;53.342;-1.534;2024-03-08T00:46:59;99063.10;;;4.11;72.43
56689;BME280;42565;53.342;-1.534;2024-03-08T00:49:26;99054.08;;;4.81;70.81
56689;BME280;42565;53.342;-1.534;2024-03-08T00:51:54;99050.84;;;5.10;70.37
56689;BME280;42565;53.342;-1.534;2024-03-08T00:54:21;99051.72;;;4.79;71.62
56689;BME280;42565;53.342;-1.534;2024-03-08T00:56:48;99051.45;;;5.04;71.18
56689;BME280;42565;53.342;-1.534;2024-03-08T00:59:15;99044.22;;;5.06;70.78
56689;BME280;42565;53.342;-1.534;2024-03-08T01:01:42;99039.78;;;4.78;71.92
56689;BME280;42565;53.342;-1.534;2024-03-08T01:04:09;99039.49;;;4.65;71.92
56689;BME280;42565;53.342;-1.534;2024-03-08T01:06:36;99035.15;;;5.15;73.15
56689;BME280;42565;53.342;-1.534;2024-03-08T01:09:03;99024.75;;;5.10;70.69
56689;BME280;42565;53.342;-1.534;2024-03-08T01:11:30;99024.01;;;5.05;70.57
56689;BME280;42565;53.342;-1.534;2024-03-08T01:13:57;99024.14;;;4.82;71.62
56689;BME280;42565;53.342;-1.534;2024-03-08T01:16:23;99021.18;;;3.97;74.93
56689;BME280;42565;53.342;-1.534;2024-03-08T01:18:51;99016.81;;;4.05;77.61
56689;BME280;42565;53.342;-1.534;2024-03-08T01:21:18;99015.61;;;3.37;78.95
56689;BME280;42565;53.342;-1.534;2024-03-08T01:23:45;99012.55;;;4.09;78.48
56689;BME280;42565;53.342;-1.534;2024-03-08T01:26:12;99004.26;;;3.58;79.03
56689;BME280;42565;53.342;-1.534;2024-03-08T01:28:39;98997.75;;;4.39;77.18
56689;BME280;42565;53.342;-1.534;2024-03-08T01:31:06;98998.39;;;3.03;82.91
56689;BME280;42565;53.342;-1.534;2024-03-08T01:33:33;98993.50;;;3.47;83.02
56689;BME280;42565;53.342;-1.534;2024-03-08T01:36:00;98994.68;;;3.55;81.14
56689;BME280;42565;53.342;-1.534;2024-03-08T01:38:28;98987.85;;;3.62;83.16
56689;BME280;42565;53.342;-1.534;2024-03-08T01:40:56;98985.83;;;4.22;81.58
56689;BME280;42565;53.342;-1.534;2024-03-08T01:43:26;98982.31;;;3.34;84.38
56689;BME280;42565;53.342;-1.534;2024-03-08T01:45:55;98981.32;;;3.51;85.38
56689;BME280;42565;53.342;-1.534;2024-03-08T01:48:22;98978.73;;;3.55;85.75
56689;BME280;42565;53.342;-1.534;2024-03-08T01:50:49;98975.78;;;3.44;87.75
56689;BME280;42565;53.342;-1.534;2024-03-08T01:53:18;98974.07;;;3.25;88.00
56689;BME280;42565;53.342;-1.534;2024-03-08T01:55:47;98966.47;;;3.41;87.12
56689;BME280;42565;53.342;-1.534;2024-03-08T01:58:15;98974.71;;;3.60;86.09
56689;BME280;42565;53.342;-1.534;2024-03-08T02:00:44;98965.31;;;4.01;85.26
56689;BME280;42565;53.342;-1.534;2024-03-08T02:03:12;98963.63;;;3.23;86.39
56689;BME280;42565;53.342;-1.534;2024-03-08T02:05:40;98964.56;;;3.02;88.83
56689;BME280;42565;53.342;-1.534;2024-03-08T02:08:08;98961.42;;;3.07;89.24
56689;BME280;42565;53.342;-1.534;2024-03-08T02:10:35;98954.38;;;3.47;88.18
56689;BME280;42565;53.342;-1.534;2024-03-08T02:13:02;98950.70;;;2.48;94.46
56689;BME280;42565;53.342;-1.534;2024-03-08T02:15:50;98947.28;;;2.21;94.47
56689;BME280;42565;53.342;-1.534;2024-03-08T02:18:17;98943.18;;;2.40;96.24
56689;BME280;42565;53.342;-1.534;2024-03-08T02:20:44;98938.64;;;2.13;95.67
56689;BME280;42565;53.342;-1.534;2024-03-08T02:23:11;98936.30;;;1.99;96.20
56689;BME280;42565;53.342;-1.534;2024-03-08T02:25:38;98926.28;;;3.21;92.73
56689;BME280;42565;53.342;-1.534;2024-03-08T02:28:06;98920.22;;;2.78;92.51
56689;BME280;42565;53.342;-1.534;2024-03-08T02:30:33;98919.70;;;3.74;88.57
56689;BME280;42565;53.342;-1.534;2024-03-08T02:33:00;98917.68;;;2.46;93.25
56689;BME280;42565;53.342;-1.534;2024-03-08T02:35:27;98914.95;;;2.70;92.63
56689;BME280;42565;53.342;-1.534;2024-03-08T02:37:55;98912.21;;;3.95;88.79
56689;BME280;42565;53.342;-1.534;2024-03-08T02:40:22;98908.52;;;4.17;86.21
56689;BME280;42565;53.342;-1.534;2024-03-08T02:42:50;98902.70;;;2.83;92.62
56689;BME280;42565;53.342;-1.534;2024-03-08T02:45:17;98899.67;;;4.10;87.31
56689;BME280;42565;53.342;-1.534;2024-03-08T02:47:44;98901.51;;;3.58;89.21
56689;BME280;42565;53.342;-1.534;2024-03-08T02:50:12;98894.85;;;1.51;97.39
56689;BME280;42565;53.342;-1.534;2024-03-08T02:52:38;98889.97;;;1.38;100.00
56689;BME280;42565;53.342;-1.534;2024-03-08T02:55:06;98893.25;;;2.27;96.84
56689;BME280;42565;53.342;-1.534;2024-03-08T02:57:34;98888.55;;;2.49;97.13
56689;BME280;42565;53.342;-1.534;2024-03-08T03:00:01;98877.31;;;3.09;92.37
56689;BME280;42565;53.342;-1.534;2024-03-08T03:02:29;98878.42;;;3.05;93.08
56689;BME280;42565;53.342;-1.534;2024-03-08T03:04:56;98874.51;;;3.73;90.23
56689;BME280;42565;53.342;-1.534;2024-03-08T03:07:23;98871.49;;;2.53;92.35
56689;BME280;42565;53.342;-1.534;2024-03-08T03:09:50;98873.75;;;3.01;91.70
56689;BME280;42565;53.342;-1.534;2024-03-08T03:12:18;98869.70;;;3.12;91.71
56689;BME280;42565;53.342;-1.534;2024-03-08T03:14:45;98862.04;;;3.24;93.04
56689;BME280;42565;53.342;-1.534;2024-03-08T03:17:13;98858.74;;;2.95;90.30
56689;BME280;42565;53.342;-1.534;2024-03-08T03:19:40;98855.75;;;2.62;92.32
56689;BME280;42565;53.342;-1.534;2024-03-08T03:22:07;98851.74;;;3.23;91.18
56689;BME280;42565;53.342;-1.534;2024-03-08T03:24:34;98854.99;;;2.78;93.40
56689;BME280;42565;53.342;-1.534;2024-03-08T03:27:02;98851.89;;;2.98;93.67
56689;BME280;42565;53.342;-1.534;2024-03-08T03:29:29;98848.33;;;2.65;96.65
56689;BME280;42565;53.342;-1.534;2024-03-08T03:31:56;98843.74;;;3.01;92.57
56689;BME280;42565;53.342;-1.534;2024-03-08T03:34:23;98843.88;;;3.46;90.94
56689;BME280;42565;53.342;-1.534;2024-03-08T03:36:50;98842.19;;;3.24;89.82
56689;BME280;42565;53.342;-1.534;2024-03-08T03:39:16;98839.99;;;3.24;91.92
56689;BME280;42565;53.342;-1.534;2024-03-08T03:41:44;98838.37;;;3.53;90.24
56689;BME280;42565;53.342;-1.534;2024-03-08T03:44:11;98840.55;;;2.55;93.14
56689;BME280;42565;53.342;-1.534;2024-03-08T03:46:41;98835.00;;;3.59;90.06
56689;BME280;42565;53.342;-1.534;2024-03-08T03:49:08;98829.22;;;3.37;91.58
56689;BME280;42565;53.342;-1.534;2024-03-08T03:51:35;98825.17;;;3.97;88.51
56689;BME280;42565;53.342;-1.534;2024-03-08T03:54:02;98825.26;;;3.87;88.49
56689;BME280;42565;53.342;-1.534;2024-03-08T03:56:30;98823.86;;;3.61;88.13
56689;BME280;42565;53.342;-1.534;2024-03-08T03:58:57;98821.95;;;3.07;89.07
56689;BME280;42565;53.342;-1.534;2024-03-08T04:01:25;98818.09;;;2.94;92.61
56689;BME280;42565;53.342;-1.534;2024-03-08T04:03:52;98815.22;;;2.49;95.12
56689;BME280;42565;53.342;-1.534;2024-03-08T04:06:19;98812.58;;;3.15;91.90
56689;BME280;42565;53.342;-1.534;2024-03-08T04:08:47;98807.46;;;2.23;96.21
56689;BME280;42565;53.342;-1.534;2024-03-08T04:11:14;98807.69;;;2.40;97.73
56689;BME280;42565;53.342;-1.534;2024-03-08T04:13:41;98804.00;;;2.24;97.32
56689;BME280;42565;53.342;-1.534;2024-03-08T04:16:08;98806.13;;;2.60;96.44
56689;BME280;42565;53.342;-1.534;2024-03-08T04:18:36;98805.36;;;3.05;92.50
56689;BME280;42565;53.342;-1.534;2024-03-08T04:21:04;98797.68;;;2.54;95.94
56689;BME280;42565;53.342;-1.534;2024-03-08T04:23:31;98795.49;;;3.41;92.52
56689;BME280;42565;53.342;-1.534;2024-03-08T04:25:58;98795.09;;;3.20;91.63
56689;BME280;42565;53.342;-1.534;2024-03-08T04:28:25;98795.90;;;3.51;89.21
56689;BME280;42565;53.342;-1.534;2024-03-08T04:30:53;98791.64;;;3.35;90.10
56689;BME280;42565;53.342;-1.534;2024-03-08T04:33:20;98784.67;;;3.88;88.30
56689;BME280;42565;53.342;-1.534;2024-03-08T04:35:47;98789.05;;;2.40;95.30
56689;BME280;42565;53.342;-1.534;2024-03-08T04:38:15;98789.18;;;3.49;91.82
56689;BME280;42565;53.342;-1.534;2024-03-08T04:40:42;98786.23;;;3.80;89.29
56689;BME280;42565;53.342;-1.534;2024-03-08T04:43:09;98782.91;;;2.63;92.90
56689;BME280;42565;53.342;-1.534;2024-03-08T04:45:36;98784.02;;;3.19;92.13
56689;BME280;42565;53.342;-1.534;2024-03-08T04:48:04;98781.94;;;2.98;93.64
56689;BME280;42565;53.342;-1.534;2024-03-08T04:50:31;98774.49;;;3.53;91.55
56689;BME280;42565;53.342;-1.534;2024-03-08T04:52:58;98782.42;;;1.47;97.53
56689;BME280;42565;53.342;-1.534;2024-03-08T04:55:25;98773.99;;;2.88;95.00
56689;BME280;42565;53.342;-1.534;2024-03-08T04:57:52;98776.44;;;3.30;92.33
56689;BME280;42565;53.342;-1.534;2024-03-08T05:00:20;98774.82;;;3.40;91.71
56689;BME280;42565;53.342;-1.534;2024-03-08T05:02:47;98773.91;;;2.91;92.36
56689;BME280;42565;53.342;-1.534;2024-03-08T05:05:14;98772.97;;;3.19;91.66
56689;BME280;42565;53.342;-1.534;2024-03-08T05:07:41;98768.42;;;3.04;93.75
56689;BME280;42565;53.342;-1.534;2024-03-08T05:10:09;98763.59;;;2.69;94.86
56689;BME280;42565;53.342;-1.534;2024-03-08T05:12:35;98763.32;;;2.62;94.84
56689;BME280;42565;53.342;-1.534;2024-03-08T05:15:03;98764.18;;;3.16;93.98
56689;BME280;42565;53.342;-1.534;2024-03-08T05:17:29;98762.81;;;3.25;93.09
56689;BME280;42565;53.342;-1.534;2024-03-08T05:19:56;98761.56;;;3.11;92.82
56689;BME280;42565;53.342;-1.534;2024-03-08T05:22:23;98760.65;;;3.08;94.62
56689;BME280;42565;53.342;-1.534;2024-03-08T05:24:51;98760.50;;;2.42;95.03
56689;BME280;42565;53.342;-1.534;2024-03-08T05:27:18;98751.91;;;3.83;89.28
56689;BME280;42565;53.342;-1.534;2024-03-08T05:29:45;98749.96;;;3.01;92.43
56689;BME280;42565;53.342;-1.534;2024-03-08T05:32:12;98750.83;;;2.93;91.62
56689;BME280;42565;53.342;-1.534;2024-03-08T05:34:39;98746.39;;;3.26;92.20
56689;BME280;42565;53.342;-1.534;2024-03-08T05:37:06;98746.33;;;2.92;94.10
56689;BME280;42565;53.342;-1.534;2024-03-08T05:39:33;98744.79;;;3.13;94.80
56689;BME280;42565;53.342;-1.534;2024-03-08T05:42:01;98744.97;;;2.20;97.72
56689;BME280;42565;53.342;-1.534;2024-03-08T05:44:28;98747.77;;;3.00;93.06
56689;BME280;42565;53.342;-1.534;2024-03-08T05:46:56;98740.30;;;3.55;91.89
56689;BME280;42565;53.342;-1.534;2024-03-08T05:49:23;98734.56;;;3.47;89.61
56689;BME280;42565;53.342;-1.534;2024-03-08T05:51:50;98735.37;;;3.63;89.44
56689;BME280;42565;53.342;-1.534;2024-03-08T05:54:17;98736.03;;;3.44;90.76
56689;BME280;42565;53.342;-1.534;2024-03-08T05:56:44;98729.10;;;3.58;89.76
56689;BME280;42565;53.342;-1.534;2024-03-08T05:59:11;98729.37;;;3.50;90.60
56689;BME280;42565;53.342;-1.534;2024-03-08T06:01:39;98730.09;;;2.27;97.11
56689;BME280;42565;53.342;-1.534;2024-03-08T06:04:06;98718.45;;;3.23;90.96
56689;BME280;42565;53.342;-1.534;2024-03-08T06:06:33;98723.32;;;2.96;94.01
56689;BME280;42565;53.342;-1.534;2024-03-08T06:09:00;98721.34;;;2.59;93.27
56689;BME280;42565;53.342;-1.534;2024-03-08T06:11:27;98719.81;;;2.19;94.88
56689;BME280;42565;53.342;-1.534;2024-03-08T06:13:55;98711.35;;;3.45;92.22
56689;BME280;42565;53.342;-1.534;2024-03-08T06:16:22;98712.30;;;3.37;90.08
56689;BME280;42565;53.342;-1.534;2024-03-08T06:18:49;98712.57;;;3.49;89.32
56689;BME280;42565;53.342;-1.534;2024-03-08T06:21:17;98716.21;;;2.73;91.84
56689;BME280;42565;53.342;-1.534;2024-03-08T06:23:43;98714.58;;;2.94;92.12
56689;BME280;42565;53.342;-1.534;2024-03-08T06:26:10;98709.72;;;3.78;88.72
56689;BME280;42565;53.342;-1.534;2024-03-08T06:28:38;98709.35;;;3.68;88.25
56689;BME280;42565;53.342;-1.534;2024-03-08T06:31:05;98712.21;;;2.34;94.14
56689;BME280;42565;53.342;-1.534;2024-03-08T06:33:32;98705.72;;;2.13;96.38
56689;BME280;42565;53.342;-1.534;2024-03-08T06:35:59;98709.97;;;1.78;98.67
56689;BME280;42565;53.342;-1.534;2024-03-08T06:38:26;98705.45;;;1.70;97.80
56689;BME280;42565;53.342;-1.534;2024-03-08T06:40:54;98707.97;;;2.98;93.99
56689;BME280;42565;53.342;-1.534;2024-03-08T06:43:21;98704.76;;;1.54;99.99
56689;BME280;42565;53.342;-1.534;2024-03-08T06:45:48;98705.21;;;2.56;96.45
56689;BME280;42565;53.342;-1.534;2024-03-08T06:48:16;98705.62;;;3.00;93.08
56689;BME280;42565;53.342;-1.534;2024-03-08T06:50:43;98702.22;;;2.94;92.89
56689;BME280;42565;53.342;-1.534;2024-03-08T06:53:10;98700.42;;;3.70;88.43
56689;BME280;42565;53.342;-1.534;2024-03-08T06:55:37;98703.35;;;2.41;93.18
56689;BME280;42565;53.342;-1.534;2024-03-08T06:58:04;98704.87;;;2.45;94.88
56689;BME280;42565;53.342;-1.534;2024-03-08T07:00:31;98703.97;;;2.23;95.85
56689;BME280;42565;53.342;-1.534;2024-03-08T07:02:58;98701.06;;;1.81;95.99
56689;BME280;42565;53.342;-1.534;2024-03-08T07:05:26;98693.91;;;3.20;91.18
56689;BME280;42565;53.342;-1.534;2024-03-08T07:07:54;98689.02;;;3.61;89.58
56689;BME280;42565;53.342;-1.534;2024-03-08T07:10:21;98685.94;;;3.65;88.36
56689;BME280;42565;53.342;-1.534;2024-03-08T07:12:48;98687.18;;;2.67;92.07
56689;BME280;42565;53.342;-1.534;2024-03-08T07:15:16;98687.67;;;2.91;91.86
56689;BME280;42565;53.342;-1.534;2024-03-08T07:17:43;98684.67;;;2.71;91.56
56689;BME280;42565;53.342;-1.534;2024-03-08T07:20:11;98683.68;;;2.83;92.95
56689;BME280;42565;53.342;-1.534;2024-03-08T07:22:38;98681.44;;;2.95;93.13
56689;BME280;42565;53.342;-1.534;2024-03-08T07:25:06;98671.63;;;3.25;90.67
56689;BME280;42565;53.342;-1.534;2024-03-08T07:27:33;98679.99;;;3.12;91.04
56689;BME280;42565;53.342;-1.534;2024-03-08T07:30:00;98679.07;;;2.02;96.31
56689;BME280;42565;53.342;-1.534;2024-03-08T07:32:27;98676.78;;;2.86;94.01
56689;BME280;42565;53.342;-1.534;2024-03-08T07:34:55;98676.27;;;2.37;94.58
56689;BME280;42565;53.342;-1.534;2024-03-08T07:37:23;98673.94;;;2.56;93.25
56689;BME280;42565;53.342;-1.534;2024-03-08T07:39:50;98671.74;;;2.11;95.69
56689;BME280;42565;53.342;-1.534;2024-03-08T07:42:17;98662.24;;;2.16;97.25
56689;BME280;42565;53.342;-1.534;2024-03-08T07:44:44;98660.67;;;2.70;92.72
56689;BME280;42565;53.342;-1.534;2024-03-08T07:47:11;98656.48;;;3.28;89.84
56689;BME280;42565;53.342;-1.534;2024-03-08T07:49:39;98662.87;;;2.52;92.73
56689;BME280;42565;53.342;-1.534;2024-03-08T07:52:06;98658.83;;;2.46;92.80
56689;BME280;42565;53.342;-1.534;2024-03-08T07:54:33;98661.37;;;2.04;94.25
56689;BME280;42565;53.342;-1.534;2024-03-08T07:57:00;98661.96;;;1.79;99.90
56689;BME280;42565;53.342;-1.534;2024-03-08T07:59:27;98661.96;;;2.51;95.23
56689;BME280;42565;53.342;-1.534;2024-03-08T08:01:55;98655.46;;;2.50;95.83
56689;BME280;42565;53.342;-1.534;2024-03-08T08:04:22;98651.27;;;1.87;95.74
56689;BME280;42565;53.342;-1.534;2024-03-08T08:06:50;98644.18;;;2.93;91.56
56689;BME280;42565;53.342;-1.534;2024-03-08T08:09:17;98639.89;;;3.54;87.87
56689;BME280;42565;53.342;-1.534;2024-03-08T08:11:45;98645.36;;;3.18;88.57
56689;BME280;42565;53.342;-1.534;2024-03-08T08:14:12;98647.02;;;2.38;91.58
56689;BME280;42565;53.342;-1.534;2024-03-08T08:16:38;98637.62;;;2.94;91.14
56689;BME280;42565;53.342;-1.534;2024-03-08T08:19:06;98634.27;;;2.74;91.09
56689;BME280;42565;53.342;-1.534;2024-03-08T08:21:33;98634.57;;;2.21;93.49
56689;BME280;42565;53.342;-1.534;2024-03-08T08:24:00;98636.74;;;1.12;97.62
56689;BME280;42565;53.342;-1.534;2024-03-08T08:26:27;98631.21;;;2.36;95.33
56689;BME280;42565;53.342;-1.534;2024-03-08T08:28:54;98626.26;;;3.07;89.25
56689;BME280;42565;53.342;-1.534;2024-03-08T08:31:21;98630.89;;;2.21;89.79
56689;BME280;42565;53.342;-1.534;2024-03-08T08:33:49;98628.58;;;2.02;96.31
56689;BME280;42565;53.342;-1.534;2024-03-08T08:36:16;98629.90;;;1.20;96.11
56689;BME280;42565;53.342;-1.534;2024-03-08T08:38:44;98618.52;;;1.26;99.53
56689;BME280;42565;53.342;-1.534;2024-03-08T08:41:11;98620.27;;;1.68;97.43
56689;BME280;42565;53.342;-1.534;2024-03-08T08:43:37;98615.26;;;2.78;92.64
56689;BME280;42565;53.342;-1.534;2024-03-08T08:46:04;98615.90;;;2.01;92.54
56689;BME280;42565;53.342;-1.534;2024-03-08T08:48:32;98616.65;;;2.07;93.53
56689;BME280;42565;53.342;-1.534;2024-03-08T08:50:58;98611.80;;;2.00;93.40
56689;BME280;42565;53.342;-1.534;2024-03-08T08:53:26;98610.67;;;2.66;90.75
56689;BME280;42565;53.342;-1.534;2024-03-08T08:55:54;98608.58;;;1.95;95.01
56689;BME280;42565;53.342;-1.534;2024-03-08T08:58:20;98607.06;;;2.95;90.86
56689;BME280;42565;53.342;-1.534;2024-03-08T09:00:47;98607.81;;;2.05;92.90
56689;BME280;42565;53.342;-1.534;2024-03-08T09:03:14;98601.20;;;2.17;92.95
56689;BME280;42565;53.342;-1.534;2024-03-08T09:05:41;98600.07;;;1.36;95.04
56689;BME280;42565;53.342;-1.534;2024-03-08T09:08:09;98600.36;;;2.67;91.21
56689;BME280;42565;53.342;-1.534;2024-03-08T09:10:36;98595.67;;;2.77;90.72
56689;BME280;42565;53.342;-1.534;2024-03-08T09:13:03;98586.54;;;3.30;86.66
56689;BME280;42565;53.342;-1.534;2024-03-08T09:15:31;98585.59;;;3.38;86.77
56689;BME280;42565;53.342;-1.534;2024-03-08T09:17:58;98580.94;;;2.64;88.44
56689;BME280;42565;53.342;-1.534;2024-03-08T09:20:25;98575.51;;;3.43;86.53
56689;BME280;42565;53.342;-1.534;2024-03-08T09:22:52;98571.36;;;3.71;85.91
56689;BME280;42565;53.342;-1.534;2024-03-08T09:25:20;98570.37;;;2.69;88.52
56689;BME280;42565;53.342;-1.534;2024-03-08T09:27:47;98571.30;;;3.09;87.99
56689;BME280;42565;53.342;-1.534;2024-03-08T09:30:14;98563.30;;;2.94;88.40
56689;BME280;42565;53.342;-1.534;2024-03-08T09:32:41;98563.38;;;2.00;91.94
56689;BME280;42565;53.342;-1.534;2024-03-08T09:35:08;98555.19;;;2.19;91.43
56689;BME280;42565;53.342;-1.534;2024-03-08T09:37:36;98554.67;;;2.07;92.09
56689;BME280;42565;53.342;-1.534;2024-03-08T09:40:03;98543.44;;;3.43;86.15
56689;BME280;42565;53.342;-1.534;2024-03-08T09:42:31;98546.85;;;2.48;89.54
56689;BME280;42565;53.342;-1.534;2024-03-08T09:44:59;98539.06;;;2.26;88.08
56689;BME280;42565;53.342;-1.534;2024-03-08T09:47:26;98535.34;;;2.53;90.38
56689;BME280;42565;53.342;-1.534;2024-03-08T09:49:55;98538.32;;;2.88;87.58
56689;BME280;42565;53.342;-1.534;2024-03-08T09:52:22;98535.30;;;3.12;86.01
56689;BME280;42565;53.342;-1.534;2024-03-08T09:54:49;98532.13;;;3.36;86.34
56689;BME280;42565;53.342;-1.534;2024-03-08T09:57:18;98530.18;;;3.24;85.75
56689;BME280;42565;53.342;-1.534;2024-03-08T09:59:46;98533.87;;;2.45;87.59
56689;BME280;42565;53.342;-1.534;2024-03-08T10:02:15;98525.20;;;1.71;90.83
56689;BME280;42565;53.342;-1.534;2024-03-08T10:04:43;98523.36;;;2.02;90.54
56689;BME280;42565;53.342;-1.534;2024-03-08T10:07:10;98515.72;;;2.65;87.71
56689;BME280;42565;53.342;-1.534;2024-03-08T10:09:38;98509.24;;;3.30;84.86
56689;BME280;42565;53.342;-1.534;2024-03-08T10:12:05;98511.35;;;2.83;85.56
56689;BME280;42565;53.342;-1.534;2024-03-08T10:14:33;98505.85;;;1.84;91.24
56689;BME280;42565;53.342;-1.534;2024-03-08T10:17:00;98506.52;;;1.51;91.29
56689;BME280;42565;53.342;-1.534;2024-03-08T10:19:28;98505.84;;;2.01;88.07
56689;BME280;42565;53.342;-1.534;2024-03-08T10:21:55;98488.92;;;2.36;88.07
56689;BME280;42565;53.342;-1.534;2024-03-08T10:24:23;98494.74;;;2.70;86.95
56689;BME280;42565;53.342;-1.534;2024-03-08T10:26:52;98493.92;;;2.65;87.96
56689;BME280;42565;53.342;-1.534;2024-03-08T10:29:19;98498.16;;;2.42;87.82
56689;BME280;42565;53.342;-1.534;2024-03-08T10:31:47;98492.57;;;2.89;84.93
56689;BME280;42565;53.342;-1.534;2024-03-08T10:34:13;98488.44;;;2.18;86.50
56689;BME280;42565;53.342;-1.534;2024-03-08T10:36:41;98496.28;;;1.83;89.44
56689;BME280;42565;53.342;-1.534;2024-03-08T10:39:23;98485.39;;;2.50;84.67
56689;BME280;42565;53.342;-1.534;2024-03-08T10:41:56;98482.12;;;3.11;81.69
56689;BME280;42565;53.342;-1.534;2024-03-08T10:44:39;98481.26;;;2.50;82.62
56689;BME280;42565;53.342;-1.534;2024-03-08T10:47:16;98474.62;;;3.19;82.34
56689;BME280;42565;53.342;-1.534;2024-03-08T10:49:51;98471.84;;;2.99;81.93
56689;BME280;42565;53.342;-1.534;2024-03-08T10:52:21;98470.40;;;2.94;82.27
56689;BME280;42565;53.342;-1.534;2024-03-08T10:54:48;98472.94;;;3.33;80.52
56689;BME280;42565;53.342;-1.534;2024-03-08T10:57:18;98475.74;;;2.57;83.12
56689;BME280;42565;53.342;-1.534;2024-03-08T10:59:47;98460.55;;;3.02;85.20
56689;BME280;42565;53.342;-1.534;2024-03-08T11:02:16;98460.51;;;1.97;88.33
56689;BME280;42565;53.342;-1.534;2024-03-08T11:04:46;98454.67;;;2.35;87.44
56689;BME280;42565;53.342;-1.534;2024-03-08T11:07:14;98455.91;;;2.42;84.83
56689;BME280;42565;53.342;-1.534;2024-03-08T11:09:42;98453.63;;;1.68;86.74
56689;BME280;42565;53.342;-1.534;2024-03-08T11:12:25;98450.12;;;2.32;85.69
56689;BME280;42565;53.342;-1.534;2024-03-08T11:14:54;98448.65;;;2.75;82.82
56689;BME280;42565;53.342;-1.534;2024-03-08T11:17:26;98443.71;;;2.11;85.24
56689;BME280;42565;53.342;-1.534;2024-03-08T11:20:00;98440.95;;;2.29;84.55
56689;BME280;42565;53.342;-1.534;2024-03-08T11:22:29;98438.52;;;2.49;83.60
56689;BME280;42565;53.342;-1.534;2024-03-08T11:24:59;98434.74;;;2.28;82.54
56689;BME280;42565;53.342;-1.534;2024-03-08T11:27:29;98434.28;;;3.59;76.56
56689;BME280;42565;53.342;-1.534;2024-03-08T11:30:01;98434.16;;;2.53;77.73
56689;BME280;42565;53.342;-1.534;2024-03-08T11:32:29;98435.08;;;2.46;78.52
56689;BME280;42565;53.342;-1.534;2024-03-08T11:34:59;98435.27;;;2.20;79.03
56689;BME280;42565;53.342;-1.534;2024-03-08T11:37:28;98432.31;;;2.17;80.61
56689;BME280;42565;53.342;-1.534;2024-03-08T11:39:55;98431.74;;;3.80;77.40
56689;BME280;42565;53.342;-1.534;2024-03-08T11:42:22;98431.05;;;3.70;74.07
56689;BME280;42565;53.342;-1.534;2024-03-08T11:44:51;98426.70;;;3.18;75.04
56689;BME280;42565;53.342;-1.534;2024-03-08T11:47:18;98419.94;;;3.15;75.95
56689;BME280;42565;53.342;-1.534;2024-03-08T11:49:46;98417.69;;;2.84;78.44
56689;BME280;42565;53.342;-1.534;2024-03-08T11:52:14;98417.64;;;2.17;80.43
56689;BME280;42565;53.342;-1.534;2024-03-08T11:54:43;98413.92;;;3.14;77.49
56689;BME280;42565;53.342;-1.534;2024-03-08T11:57:14;98411.51;;;2.93;76.78
56689;BME280;42565;53.342;-1.534;2024-03-08T11:59:49;98409.53;;;3.68;75.07
56689;BME280;42565;53.342;-1.534;2024-03-08T12:02:17;98403.75;;;3.15;77.27
56689;BME280;42565;53.342;-1.534;2024-03-08T12:04:45;98399.30;;;3.78;74.67
56689;BME280;42565;53.342;-1.534;2024-03-08T12:07:12;98394.60;;;3.57;74.83
56689;BME280;42565;53.342;-1.534;2024-03-08T12:09:39;98390.81;;;2.69;76.57
56689;BME280;42565;53.342;-1.534;2024-03-08T12:12:07;98387.78;;;2.89;78.05
56689;BME280;42565;53.342;-1.534;2024-03-08T12:14:34;98378.38;;;3.60;74.91
56689;BME280;42565;53.342;-1.534;2024-03-08T12:17:02;98380.12;;;3.87;70.86
56689;BME280;42565;53.342;-1.534;2024-03-08T12:19:30;98367.92;;;3.08;73.92
56689;BME280;42565;53.342;-1.534;2024-03-08T12:21:58;98362.55;;;4.27;71.47
56689;BME280;42565;53.342;-1.534;2024-03-08T12:24:34;98358.24;;;4.70;70.05
56689;BME280;42565;53.342;-1.534;2024-03-08T12:27:01;98351.92;;;4.90;67.77
56689;BME280;42565;53.342;-1.534;2024-03-08T12:29:43;98349.98;;;5.70;66.50
56689;BME280;42565;53.342;-1.534;2024-03-08T12:32:11;98349.16;;;5.09;66.82
56689;BME280;42565;53.342;-1.534;2024-03-08T12:34:39;98342.96;;;4.26;67.89
56689;BME280;42565;53.342;-1.534;2024-03-08T12:37:07;98340.82;;;5.62;65.77
56689;BME280;42565;53.342;-1.534;2024-03-08T12:39:34;98341.75;;;4.59;66.31
56689;BME280;42565;53.342;-1.534;2024-03-08T12:42:01;98330.71;;;5.50;65.73
56689;BME280;42565;53.342;-1.534;2024-03-08T12:44:28;98329.98;;;5.30;65.70
56689;BME280;42565;53.342;-1.534;2024-03-08T12:46:56;98326.40;;;5.18;66.10
56689;BME280;42565;53.342;-1.534;2024-03-08T12:49:23;98322.82;;;4.89;65.31
56689;BME280;42565;53.342;-1.534;2024-03-08T12:51:50;98332.16;;;4.89;66.19
56689;BME280;42565;53.342;-1.534;2024-03-08T12:54:17;98319.06;;;4.42;66.38
56689;BME280;42565;53.342;-1.534;2024-03-08T12:56:44;98314.93;;;5.29;65.37
56689;BME280;42565;53.342;-1.534;2024-03-08T12:59:11;98310.75;;;5.94;62.87
56689;BME280;42565;53.342;-1.534;2024-03-08T13:01:39;98309.78;;;5.40;63.59